sensor_id;sensor_type;location;lat;lon;timestamp;P1;durP1;ratioP1;P2;durP2;ratioP2
58643;SDS011;44411;49.994;8.660;2023-06-14T00:00:36;7.38;;;5.43;;
58643;SDS011;44411;49.994;8.660;2023-06-14T00:03:04;6.70;;;4.90;;
58643;SDS011;44411;49.994;8.660;2023-06-14T00:05:29;7.25;;;5.13;;
58643;SDS011;44411;49.994;8.660;2023-06-14T00:07:58;8.52;;;5.93;;
58643;SDS011;44411;49.994;8.660;2023-06-14T00:10:25;10.57;;;6.35;;
58643;SDS011;44411;49.994;8.660;2023-06-14T00:12:52;7.35;;;5.40;;
58643;SDS011;44411;49.994;8.660;2023-06-14T00:15:17;9.00;;;5.70;;
58643;SDS011;44411;49.994;8.660;2023-06-14T00:17:42;7.77;;;5.77;;
58643;SDS011;44411;49.994;8.660;2023-06-14T00:20:10;8.32;;;6.45;;
58643;SDS011;44411;49.994;8.660;2023-06-14T00:22:35;10.55;;;6.45;;
58643;SDS011;44411;49.994;8.660;2023-06-14T00:25:02;9.73;;;5.85;;
58643;SDS011;44411;49.994;8.660;2023-06-14T00:27:27;8.93;;;5.72;;
58643;SDS011;44411;49.994;8.660;2023-06-14T00:29:52;8.43;;;5.60;;
58643;SDS011;44411;49.994;8.660;2023-06-14T00:32:18;8.33;;;5.67;;
58643;SDS011;44411;49.994;8.660;2023-06-14T00:34:43;7.90;;;5.88;;
58643;SDS011;44411;49.994;8.660;2023-06-14T00:37:08;10.17;;;6.07;;
58643;SDS011;44411;49.994;8.660;2023-06-14T00:39:33;7.97;;;5.93;;
58643;SDS011;44411;49.994;8.660;2023-06-14T00:41:58;8.80;;;6.17;;
58643;SDS011;44411;49.994;8.660;2023-06-14T00:44:24;7.05;;;5.10;;
58643;SDS011;44411;49.994;8.660;2023-06-14T00:46:49;8.30;;;5.83;;
58643;SDS011;44411;49.994;8.660;2023-06-14T00:49:15;7.38;;;5.85;;
58643;SDS011;44411;49.994;8.660;2023-06-14T00:51:41;7.68;;;5.13;;
58643;SDS011;44411;49.994;8.660;2023-06-14T00:54:06;7.00;;;5.65;;
58643;SDS011;44411;49.994;8.660;2023-06-14T00:56:32;7.82;;;5.45;;
58643;SDS011;44411;49.994;8.660;2023-06-14T00:58:57;7.97;;;5.63;;
58643;SDS011;44411;49.994;8.660;2023-06-14T01:01:23;9.18;;;5.63;;
58643;SDS011;44411;49.994;8.660;2023-06-14T01:03:49;7.82;;;5.40;;
58643;SDS011;44411;49.994;8.660;2023-06-14T01:06:19;7.25;;;4.75;;
58643;SDS011;44411;49.994;8.660;2023-06-14T01:08:57;7.55;;;5.10;;
58643;SDS011;44411;49.994;8.660;2023-06-14T01:11:26;10.02;;;6.10;;
58643;SDS011;44411;49.994;8.660;2023-06-14T01:13:53;8.45;;;5.25;;
58643;SDS011;44411;49.994;8.660;2023-06-14T01:16:19;7.40;;;5.00;;
58643;SDS011;44411;49.994;8.660;2023-06-14T01:18:44;7.18;;;5.65;;
58643;SDS011;44411;49.994;8.660;2023-06-14T01:21:20;8.40;;;5.57;;
58643;SDS011;44411;49.994;8.660;2023-06-14T01:23:46;7.63;;;5.60;;
58643;SDS011;44411;49.994;8.660;2023-06-14T01:26:17;6.60;;;5.18;;
58643;SDS011;44411;49.994;8.660;2023-06-14T01:28:43;8.07;;;5.20;;
58643;SDS011;44411;49.994;8.660;2023-06-14T01:31:13;6.75;;;5.03;;
58643;SDS011;44411;49.994;8.660;2023-06-14T01:33:41;7.38;;;4.88;;
58643;SDS011;44411;49.994;8.660;2023-06-14T01:36:07;7.32;;;5.93;;
58643;SDS011;44411;49.994;8.660;2023-06-14T01:38:33;7.45;;;5.30;;
58643;SDS011;44411;49.994;8.660;2023-06-14T01:40:58;11.25;;;5.75;;
58643;SDS011;44411;49.994;8.660;2023-06-14T01:43:24;7.88;;;5.07;;
58643;SDS011;44411;49.994;8.660;2023-06-14T01:45:51;6.65;;;5.05;;
58643;SDS011;44411;49.994;8.660;2023-06-14T01:48:17;8.07;;;5.57;;
58643;SDS011;44411;49.994;8.660;2023-06-14T01:50:43;7.05;;;5.05;;
58643;SDS011;44411;49.994;8.660;2023-06-14T01:53:08;7.97;;;5.50;;
58643;SDS011;44411;49.994;8.660;2023-06-14T01:55:34;7.22;;;5.15;;
58643;SDS011;44411;49.994;8.660;2023-06-14T01:58:05;7.88;;;5.20;;
58643;SDS011;44411;49.994;8.660;2023-06-14T02:00:30;7.72;;;5.03;;
58643;SDS011;44411;49.994;8.660;2023-06-14T02:02:56;6.50;;;4.80;;
58643;SDS011;44411;49.994;8.660;2023-06-14T02:05:21;7.22;;;4.97;;
58643;SDS011;44411;49.994;8.660;2023-06-14T02:07:46;8.55;;;5.43;;
58643;SDS011;44411;49.994;8.660;2023-06-14T02:10:12;7.30;;;5.03;;
58643;SDS011;44411;49.994;8.660;2023-06-14T02:12:37;6.88;;;5.60;;
58643;SDS011;44411;49.994;8.660;2023-06-14T02:15:02;7.43;;;4.60;;
58643;SDS011;44411;49.994;8.660;2023-06-14T02:17:28;7.47;;;5.30;;
58643;SDS011;44411;49.994;8.660;2023-06-14T02:19:54;9.13;;;5.30;;
58643;SDS011;44411;49.994;8.660;2023-06-14T02:22:20;9.25;;;5.32;;
58643;SDS011;44411;49.994;8.660;2023-06-14T02:24:46;7.30;;;5.10;;
58643;SDS011;44411;49.994;8.660;2023-06-14T02:27:12;7.22;;;4.65;;
58643;SDS011;44411;49.994;8.660;2023-06-14T02:29:37;7.93;;;5.47;;
58643;SDS011;44411;49.994;8.660;2023-06-14T02:32:03;6.83;;;5.23;;
58643;SDS011;44411;49.994;8.660;2023-06-14T02:34:29;7.05;;;4.68;;
58643;SDS011;44411;49.994;8.660;2023-06-14T02:36:54;7.15;;;5.35;;
58643;SDS011;44411;49.994;8.660;2023-06-14T02:39:20;7.13;;;4.45;;
58643;SDS011;44411;49.994;8.660;2023-06-14T02:41:46;8.23;;;5.10;;
58643;SDS011;44411;49.994;8.660;2023-06-14T02:44:12;7.90;;;4.97;;
58643;SDS011;44411;49.994;8.660;2023-06-14T02:46:38;7.43;;;4.68;;
58643;SDS011;44411;49.994;8.660;2023-06-14T02:49:03;8.23;;;4.63;;
58643;SDS011;44411;49.994;8.660;2023-06-14T02:51:28;7.47;;;5.30;;
58643;SDS011;44411;49.994;8.660;2023-06-14T02:53:53;8.93;;;4.63;;
58643;SDS011;44411;49.994;8.660;2023-06-14T02:56:19;7.40;;;4.20;;
58643;SDS011;44411;49.994;8.660;2023-06-14T02:58:44;8.15;;;5.53;;
58643;SDS011;44411;49.994;8.660;2023-06-14T03:01:10;7.80;;;4.47;;
58643;SDS011;44411;49.994;8.660;2023-06-14T03:03:38;8.30;;;5.35;;
58643;SDS011;44411;49.994;8.660;2023-06-14T03:06:03;7.82;;;5.28;;
58643;SDS011;44411;49.994;8.660;2023-06-14T03:08:30;6.35;;;5.00;;
58643;SDS011;44411;49.994;8.660;2023-06-14T03:10:56;10.77;;;4.95;;
58643;SDS011;44411;49.994;8.660;2023-06-14T03:13:22;9.80;;;5.00;;
58643;SDS011;44411;49.994;8.660;2023-06-14T03:15:48;6.25;;;4.82;;
58643;SDS011;44411;49.994;8.660;2023-06-14T03:18:15;9.10;;;5.03;;
58643;SDS011;44411;49.994;8.660;2023-06-14T03:20:40;6.72;;;5.05;;
58643;SDS011;44411;49.994;8.660;2023-06-14T03:23:07;6.45;;;4.60;;
58643;SDS011;44411;49.994;8.660;2023-06-14T03:25:33;6.78;;;4.57;;
58643;SDS011;44411;49.994;8.660;2023-06-14T03:28:00;9.15;;;4.97;;
58643;SDS011;44411;49.994;8.660;2023-06-14T03:30:25;8.33;;;4.80;;
58643;SDS011;44411;49.994;8.660;2023-06-14T03:32:50;7.80;;;4.97;;
58643;SDS011;44411;49.994;8.660;2023-06-14T03:35:17;7.50;;;4.60;;
58643;SDS011;44411;49.994;8.660;2023-06-14T03:37:43;6.35;;;4.40;;
58643;SDS011;44411;49.994;8.660;2023-06-14T03:40:09;7.80;;;4.53;;
58643;SDS011;44411;49.994;8.660;2023-06-14T03:42:34;7.68;;;4.50;;
58643;SDS011;44411;49.994;8.660;2023-06-14T03:44:59;6.88;;;4.43;;
58643;SDS011;44411;49.994;8.660;2023-06-14T03:47:25;8.02;;;4.72;;
58643;SDS011;44411;49.994;8.660;2023-06-14T03:49:50;7.43;;;4.87;;
58643;SDS011;44411;49.994;8.660;2023-06-14T03:52:15;7.95;;;4.88;;
58643;SDS011;44411;49.994;8.660;2023-06-14T03:54:42;9.05;;;4.55;;
58643;SDS011;44411;49.994;8.660;2023-06-14T03:57:09;7.30;;;4.55;;
58643;SDS011;44411;49.994;8.660;2023-06-14T03:59:35;6.43;;;4.25;;
58643;SDS011;44411;49.994;8.660;2023-06-14T04:02:00;8.98;;;4.43;;
58643;SDS011;44411;49.994;8.660;2023-06-14T04:04:25;7.37;;;4.40;;
58643;SDS011;44411;49.994;8.660;2023-06-14T04:06:53;6.05;;;4.40;;
58643;SDS011;44411;49.994;8.660;2023-06-14T04:09:19;7.32;;;4.63;;
58643;SDS011;44411;49.994;8.660;2023-06-14T04:11:44;7.50;;;4.43;;
58643;SDS011;44411;49.994;8.660;2023-06-14T04:14:09;7.32;;;4.45;;
58643;SDS011;44411;49.994;8.660;2023-06-14T04:16:35;7.53;;;4.55;;
58643;SDS011;44411;49.994;8.660;2023-06-14T04:19:00;7.90;;;5.07;;
58643;SDS011;44411;49.994;8.660;2023-06-14T04:21:25;8.40;;;4.90;;
58643;SDS011;44411;49.994;8.660;2023-06-14T04:23:52;6.03;;;4.03;;
58643;SDS011;44411;49.994;8.660;2023-06-14T04:26:20;6.38;;;4.30;;
58643;SDS011;44411;49.994;8.660;2023-06-14T04:28:46;8.02;;;4.35;;
58643;SDS011;44411;49.994;8.660;2023-06-14T04:31:12;8.95;;;4.47;;
58643;SDS011;44411;49.994;8.660;2023-06-14T04:33:37;6.13;;;4.13;;
58643;SDS011;44411;49.994;8.660;2023-06-14T04:36:11;6.18;;;4.00;;
58643;SDS011;44411;49.994;8.660;2023-06-14T04:38:37;7.35;;;4.40;;
58643;SDS011;44411;49.994;8.660;2023-06-14T04:41:03;6.60;;;4.28;;
58643;SDS011;44411;49.994;8.660;2023-06-14T04:43:28;6.80;;;4.35;;
58643;SDS011;44411;49.994;8.660;2023-06-14T04:45:53;10.97;;;4.80;;
58643;SDS011;44411;49.994;8.660;2023-06-14T04:48:21;7.40;;;4.70;;
58643;SDS011;44411;49.994;8.660;2023-06-14T04:50:46;6.78;;;4.68;;
58643;SDS011;44411;49.994;8.660;2023-06-14T04:53:11;6.87;;;4.83;;
58643;SDS011;44411;49.994;8.660;2023-06-14T04:55:36;8.73;;;4.17;;
58643;SDS011;44411;49.994;8.660;2023-06-14T04:58:02;9.95;;;4.95;;
58643;SDS011;44411;49.994;8.660;2023-06-14T05:00:28;7.47;;;4.70;;
58643;SDS011;44411;49.994;8.660;2023-06-14T05:02:53;6.80;;;4.40;;
58643;SDS011;44411;49.994;8.660;2023-06-14T05:05:18;6.60;;;4.60;;
58643;SDS011;44411;49.994;8.660;2023-06-14T05:07:44;6.30;;;4.18;;
58643;SDS011;44411;49.994;8.660;2023-06-14T05:10:10;6.63;;;4.18;;
58643;SDS011;44411;49.994;8.660;2023-06-14T05:12:35;7.40;;;4.55;;
58643;SDS011;44411;49.994;8.660;2023-06-14T05:15:01;6.82;;;4.85;;
58643;SDS011;44411;49.994;8.660;2023-06-14T05:17:26;6.30;;;4.60;;
58643;SDS011;44411;49.994;8.660;2023-06-14T05:19:53;6.78;;;3.67;;
58643;SDS011;44411;49.994;8.660;2023-06-14T05:22:18;8.43;;;4.43;;
58643;SDS011;44411;49.994;8.660;2023-06-14T05:24:43;9.38;;;4.53;;
58643;SDS011;44411;49.994;8.660;2023-06-14T05:27:08;6.68;;;4.47;;
58643;SDS011;44411;49.994;8.660;2023-06-14T05:29:34;9.27;;;4.55;;
58643;SDS011;44411;49.994;8.660;2023-06-14T05:31:59;6.82;;;4.25;;
58643;SDS011;44411;49.994;8.660;2023-06-14T05:34:24;8.43;;;4.30;;
58643;SDS011;44411;49.994;8.660;2023-06-14T05:36:50;6.40;;;4.03;;
58643;SDS011;44411;49.994;8.660;2023-06-14T05:39:15;6.57;;;4.10;;
58643;SDS011;44411;49.994;8.660;2023-06-14T05:41:40;7.50;;;4.30;;
58643;SDS011;44411;49.994;8.660;2023-06-14T05:44:06;5.63;;;3.83;;
58643;SDS011;44411;49.994;8.660;2023-06-14T05:46:32;6.60;;;4.47;;
58643;SDS011;44411;49.994;8.660;2023-06-14T05:48:57;5.50;;;3.90;;
58643;SDS011;44411;49.994;8.660;2023-06-14T05:51:23;6.40;;;4.10;;
58643;SDS011;44411;49.994;8.660;2023-06-14T05:53:49;5.95;;;4.13;;
58643;SDS011;44411;49.994;8.660;2023-06-14T05:56:15;6.53;;;3.67;;
58643;SDS011;44411;49.994;8.660;2023-06-14T05:58:42;8.55;;;3.50;;
58643;SDS011;44411;49.994;8.660;2023-06-14T06:01:08;10.07;;;4.03;;
58643;SDS011;44411;49.994;8.660;2023-06-14T06:03:33;5.73;;;3.90;;
58643;SDS011;44411;49.994;8.660;2023-06-14T06:05:58;6.70;;;4.60;;
58643;SDS011;44411;49.994;8.660;2023-06-14T06:08:23;5.50;;;3.95;;
58643;SDS011;44411;49.994;8.660;2023-06-14T06:10:49;7.40;;;5.43;;
58643;SDS011;44411;49.994;8.660;2023-06-14T06:13:14;6.13;;;4.57;;
58643;SDS011;44411;49.994;8.660;2023-06-14T06:15:40;7.90;;;4.20;;
58643;SDS011;44411;49.994;8.660;2023-06-14T06:18:05;6.90;;;4.73;;
58643;SDS011;44411;49.994;8.660;2023-06-14T06:20:31;5.97;;;3.97;;
58643;SDS011;44411;49.994;8.660;2023-06-14T06:22:57;9.93;;;5.00;;
58643;SDS011;44411;49.994;8.660;2023-06-14T06:25:22;9.38;;;4.60;;
58643;SDS011;44411;49.994;8.660;2023-06-14T06:27:51;8.73;;;4.18;;
58643;SDS011;44411;49.994;8.660;2023-06-14T06:30:16;6.30;;;4.20;;
58643;SDS011;44411;49.994;8.660;2023-06-14T06:32:41;8.23;;;3.97;;
58643;SDS011;44411;49.994;8.660;2023-06-14T06:35:06;7.30;;;4.00;;
58643;SDS011;44411;49.994;8.660;2023-06-14T06:37:33;6.35;;;4.10;;
58643;SDS011;44411;49.994;8.660;2023-06-14T06:39:59;6.83;;;4.30;;
58643;SDS011;44411;49.994;8.660;2023-06-14T06:42:24;4.68;;;3.70;;
58643;SDS011;44411;49.994;8.660;2023-06-14T06:44:49;5.15;;;3.55;;
58643;SDS011;44411;49.994;8.660;2023-06-14T06:47:15;6.90;;;4.20;;
58643;SDS011;44411;49.994;8.660;2023-06-14T06:49:40;6.07;;;3.80;;
58643;SDS011;44411;49.994;8.660;2023-06-14T06:52:06;6.00;;;3.47;;
58643;SDS011;44411;49.994;8.660;2023-06-14T06:54:32;6.63;;;4.10;;
58643;SDS011;44411;49.994;8.660;2023-06-14T06:56:57;5.97;;;4.00;;
58643;SDS011;44411;49.994;8.660;2023-06-14T06:59:22;6.45;;;4.20;;
58643;SDS011;44411;49.994;8.660;2023-06-14T07:01:48;8.23;;;4.47;;
58643;SDS011;44411;49.994;8.660;2023-06-14T07:04:13;6.30;;;4.00;;
58643;SDS011;44411;49.994;8.660;2023-06-14T07:06:39;7.70;;;4.05;;
58643;SDS011;44411;49.994;8.660;2023-06-14T07:09:04;6.03;;;3.63;;
58643;SDS011;44411;49.994;8.660;2023-06-14T07:11:33;5.32;;;3.15;;
58643;SDS011;44411;49.994;8.660;2023-06-14T07:13:58;4.72;;;3.30;;
58643;SDS011;44411;49.994;8.660;2023-06-14T07:16:23;7.77;;;3.80;;
58643;SDS011;44411;49.994;8.660;2023-06-14T07:18:48;5.63;;;3.77;;
58643;SDS011;44411;49.994;8.660;2023-06-14T07:21:14;6.93;;;3.27;;
58643;SDS011;44411;49.994;8.660;2023-06-14T07:23:39;7.10;;;3.83;;
58643;SDS011;44411;49.994;8.660;2023-06-14T07:26:04;8.80;;;3.90;;
58643;SDS011;44411;49.994;8.660;2023-06-14T07:28:30;4.32;;;2.95;;
58643;SDS011;44411;49.994;8.660;2023-06-14T07:30:55;5.85;;;2.75;;
58643;SDS011;44411;49.994;8.660;2023-06-14T07:33:20;5.33;;;3.17;;
58643;SDS011;44411;49.994;8.660;2023-06-14T07:35:45;4.87;;;3.13;;
58643;SDS011;44411;49.994;8.660;2023-06-14T07:38:11;4.93;;;3.28;;
58643;SDS011;44411;49.994;8.660;2023-06-14T07:40:36;5.95;;;2.92;;
58643;SDS011;44411;49.994;8.660;2023-06-14T07:43:01;4.80;;;2.80;;
58643;SDS011;44411;49.994;8.660;2023-06-14T07:45:27;6.18;;;2.45;;
58643;SDS011;44411;49.994;8.660;2023-06-14T07:47:52;3.50;;;2.17;;
58643;SDS011;44411;49.994;8.660;2023-06-14T07:50:17;6.30;;;3.57;;
58643;SDS011;44411;49.994;8.660;2023-06-14T07:52:43;6.37;;;4.00;;
58643;SDS011;44411;49.994;8.660;2023-06-14T07:55:08;3.80;;;2.38;;
58643;SDS011;44411;49.994;8.660;2023-06-14T07:57:34;5.78;;;2.70;;
58643;SDS011;44411;49.994;8.660;2023-06-14T08:00:00;5.13;;;2.50;;
58643;SDS011;44411;49.994;8.660;2023-06-14T08:02:25;5.75;;;2.38;;
58643;SDS011;44411;49.994;8.660;2023-06-14T08:04:50;5.23;;;2.40;;
58643;SDS011;44411;49.994;8.660;2023-06-14T08:07:16;4.53;;;2.10;;
58643;SDS011;44411;49.994;8.660;2023-06-14T08:09:41;3.67;;;1.80;;
58643;SDS011;44411;49.994;8.660;2023-06-14T08:12:06;5.18;;;2.50;;
58643;SDS011;44411;49.994;8.660;2023-06-14T08:14:32;3.58;;;2.03;;
58643;SDS011;44411;49.994;8.660;2023-06-14T08:16:58;5.07;;;2.00;;
58643;SDS011;44411;49.994;8.660;2023-06-14T08:19:23;4.50;;;2.40;;
58643;SDS011;44411;49.994;8.660;2023-06-14T08:21:48;4.30;;;2.27;;
58643;SDS011;44411;49.994;8.660;2023-06-14T08:24:14;4.28;;;2.33;;
58643;SDS011;44411;49.994;8.660;2023-06-14T08:26:39;4.35;;;2.30;;
58643;SDS011;44411;49.994;8.660;2023-06-14T08:29:04;5.45;;;2.30;;
58643;SDS011;44411;49.994;8.660;2023-06-14T08:31:30;3.72;;;2.33;;
58643;SDS011;44411;49.994;8.660;2023-06-14T08:33:56;6.15;;;2.35;;
58643;SDS011;44411;49.994;8.660;2023-06-14T08:36:22;3.88;;;2.45;;
58643;SDS011;44411;49.994;8.660;2023-06-14T08:38:48;4.35;;;2.20;;
58643;SDS011;44411;49.994;8.660;2023-06-14T08:41:13;4.35;;;2.60;;
58643;SDS011;44411;49.994;8.660;2023-06-14T08:43:41;5.18;;;2.47;;
58643;SDS011;44411;49.994;8.660;2023-06-14T08:46:06;4.00;;;1.97;;
58643;SDS011;44411;49.994;8.660;2023-06-14T08:48:35;3.45;;;2.13;;
58643;SDS011;44411;49.994;8.660;2023-06-14T08:51:01;4.50;;;2.60;;
58643;SDS011;44411;49.994;8.660;2023-06-14T08:53:32;4.10;;;2.30;;
58643;SDS011;44411;49.994;8.660;2023-06-14T08:56:02;5.25;;;2.35;;
58643;SDS011;44411;49.994;8.660;2023-06-14T08:58:30;6.50;;;2.38;;
58643;SDS011;44411;49.994;8.660;2023-06-14T09:00:57;5.43;;;2.38;;
58643;SDS011;44411;49.994;8.660;2023-06-14T09:03:22;6.28;;;2.67;;
58643;SDS011;44411;49.994;8.660;2023-06-14T09:05:54;3.75;;;2.10;;
58643;SDS011;44411;49.994;8.660;2023-06-14T09:08:19;5.75;;;2.80;;
58643;SDS011;44411;49.994;8.660;2023-06-14T09:10:47;4.18;;;2.60;;
58643;SDS011;44411;49.994;8.660;2023-06-14T09:13:12;4.05;;;2.08;;
58643;SDS011;44411;49.994;8.660;2023-06-14T09:15:37;4.93;;;1.98;;
58643;SDS011;44411;49.994;8.660;2023-06-14T09:18:03;4.77;;;1.80;;
58643;SDS011;44411;49.994;8.660;2023-06-14T09:20:29;8.07;;;2.63;;
58643;SDS011;44411;49.994;8.660;2023-06-14T09:22:54;3.53;;;1.92;;
58643;SDS011;44411;49.994;8.660;2023-06-14T09:25:19;3.07;;;1.70;;
58643;SDS011;44411;49.994;8.660;2023-06-14T09:27:45;3.17;;;1.80;;
58643;SDS011;44411;49.994;8.660;2023-06-14T09:30:11;4.30;;;2.28;;
58643;SDS011;44411;49.994;8.660;2023-06-14T09:32:37;2.95;;;1.85;;
58643;SDS011;44411;49.994;8.660;2023-06-14T09:35:04;5.15;;;1.98;;
58643;SDS011;44411;49.994;8.660;2023-06-14T09:37:30;3.05;;;1.77;;
58643;SDS011;44411;49.994;8.660;2023-06-14T09:39:56;2.47;;;1.73;;
58643;SDS011;44411;49.994;8.660;2023-06-14T09:42:21;2.85;;;1.73;;
58643;SDS011;44411;49.994;8.660;2023-06-14T09:44:48;3.63;;;2.30;;
58643;SDS011;44411;49.994;8.660;2023-06-14T09:47:14;2.85;;;1.70;;
58643;SDS011;44411;49.994;8.660;2023-06-14T09:49:39;3.03;;;1.58;;
58643;SDS011;44411;49.994;8.660;2023-06-14T09:52:05;8.23;;;2.00;;
58643;SDS011;44411;49.994;8.660;2023-06-14T09:54:31;3.30;;;2.05;;
58643;SDS011;44411;49.994;8.660;2023-06-14T09:56:57;3.80;;;1.92;;
58643;SDS011;44411;49.994;8.660;2023-06-14T09:59:25;3.20;;;1.50;;
58643;SDS011;44411;49.994;8.660;2023-06-14T10:01:54;3.65;;;1.77;;
58643;SDS011;44411;49.994;8.660;2023-06-14T10:04:22;4.68;;;2.17;;
58643;SDS011;44411;49.994;8.660;2023-06-14T10:06:48;4.65;;;1.90;;
58643;SDS011;44411;49.994;8.660;2023-06-14T10:09:15;3.83;;;1.88;;
58643;SDS011;44411;49.994;8.660;2023-06-14T10:11:40;4.03;;;1.83;;
58643;SDS011;44411;49.994;8.660;2023-06-14T10:14:08;4.32;;;1.90;;
58643;SDS011;44411;49.994;8.660;2023-06-14T10:16:36;4.10;;;1.80;;
58643;SDS011;44411;49.994;8.660;2023-06-14T10:24:20;3.42;;;1.80;;
58643;SDS011;44411;49.994;8.660;2023-06-14T10:26:50;3.58;;;1.88;;
58643;SDS011;44411;49.994;8.660;2023-06-14T10:29:16;3.55;;;1.80;;
58643;SDS011;44411;49.994;8.660;2023-06-14T10:31:44;3.47;;;1.77;;
58643;SDS011;44411;49.994;8.660;2023-06-14T10:34:10;3.80;;;2.10;;
58643;SDS011;44411;49.994;8.660;2023-06-14T10:36:36;3.40;;;1.98;;
58643;SDS011;44411;49.994;8.660;2023-06-14T10:41:30;3.93;;;2.43;;
58643;SDS011;44411;49.994;8.660;2023-06-14T10:44:56;3.55;;;1.88;;
58643;SDS011;44411;49.994;8.660;2023-06-14T10:46:53;4.75;;;1.90;;
58643;SDS011;44411;49.994;8.660;2023-06-14T10:49:18;3.22;;;1.90;;
58643;SDS011;44411;49.994;8.660;2023-06-14T10:51:44;3.22;;;1.90;;
58643;SDS011;44411;49.994;8.660;2023-06-14T10:54:17;3.75;;;1.83;;
58643;SDS011;44411;49.994;8.660;2023-06-14T10:56:51;3.50;;;1.85;;
58643;SDS011;44411;49.994;8.660;2023-06-14T10:59:18;3.95;;;1.90;;
58643;SDS011;44411;49.994;8.660;2023-06-14T11:04:49;2.78;;;1.60;;
58643;SDS011;44411;49.994;8.660;2023-06-14T11:10:02;2.67;;;1.90;;
58643;SDS011;44411;49.994;8.660;2023-06-14T11:12:31;3.22;;;1.58;;
58643;SDS011;44411;49.994;8.660;2023-06-14T11:14:57;3.60;;;1.80;;
58643;SDS011;44411;49.994;8.660;2023-06-14T11:17:22;3.87;;;1.87;;
58643;SDS011;44411;49.994;8.660;2023-06-14T11:19:47;2.93;;;1.93;;
58643;SDS011;44411;49.994;8.660;2023-06-14T11:22:12;2.80;;;1.97;;
58643;SDS011;44411;49.994;8.660;2023-06-14T11:24:39;3.22;;;1.98;;
58643;SDS011;44411;49.994;8.660;2023-06-14T11:27:05;3.27;;;1.67;;
58643;SDS011;44411;49.994;8.660;2023-06-14T11:29:31;2.90;;;1.75;;
58643;SDS011;44411;49.994;8.660;2023-06-14T11:31:59;3.97;;;1.98;;
58643;SDS011;44411;49.994;8.660;2023-06-14T11:34:24;2.93;;;1.70;;
58643;SDS011;44411;49.994;8.660;2023-06-14T11:36:50;2.63;;;1.63;;
58643;SDS011;44411;49.994;8.660;2023-06-14T11:39:15;3.13;;;1.88;;
58643;SDS011;44411;49.994;8.660;2023-06-14T11:41:44;2.67;;;1.65;;
58643;SDS011;44411;49.994;8.660;2023-06-14T11:44:10;2.85;;;1.63;;
58643;SDS011;44411;49.994;8.660;2023-06-14T11:46:35;5.15;;;1.88;;
58643;SDS011;44411;49.994;8.660;2023-06-14T11:49:01;3.45;;;2.25;;
58643;SDS011;44411;49.994;8.660;2023-06-14T11:51:28;4.30;;;2.03;;
58643;SDS011;44411;49.994;8.660;2023-06-14T11:53:53;3.80;;;1.80;;
58643;SDS011;44411;49.994;8.660;2023-06-14T11:56:19;5.30;;;1.95;;
58643;SDS011;44411;49.994;8.660;2023-06-14T11:58:44;2.95;;;1.70;;
58643;SDS011;44411;49.994;8.660;2023-06-14T12:01:14;3.65;;;2.05;;
58643;SDS011;44411;49.994;8.660;2023-06-14T12:06:05;4.13;;;2.30;;
58643;SDS011;44411;49.994;8.660;2023-06-14T12:08:32;3.83;;;2.08;;
58643;SDS011;44411;49.994;8.660;2023-06-14T12:11:03;3.45;;;2.17;;
58643;SDS011;44411;49.994;8.660;2023-06-14T12:13:28;3.60;;;2.13;;
58643;SDS011;44411;49.994;8.660;2023-06-14T12:15:54;4.70;;;2.30;;
58643;SDS011;44411;49.994;8.660;2023-06-14T12:18:20;4.60;;;2.70;;
58643;SDS011;44411;49.994;8.660;2023-06-14T12:20:48;4.30;;;2.43;;
58643;SDS011;44411;49.994;8.660;2023-06-14T12:23:14;3.90;;;2.33;;
58643;SDS011;44411;49.994;8.660;2023-06-14T12:25:40;4.07;;;2.35;;
58643;SDS011;44411;49.994;8.660;2023-06-14T12:28:07;3.20;;;2.17;;
58643;SDS011;44411;49.994;8.660;2023-06-14T12:30:33;3.63;;;2.03;;
58643;SDS011;44411;49.994;8.660;2023-06-14T12:32:58;3.72;;;2.25;;
58643;SDS011;44411;49.994;8.660;2023-06-14T12:35:24;5.25;;;2.60;;
58643;SDS011;44411;49.994;8.660;2023-06-14T12:37:49;5.05;;;2.50;;
58643;SDS011;44411;49.994;8.660;2023-06-14T12:40:14;4.20;;;2.50;;
58643;SDS011;44411;49.994;8.660;2023-06-14T12:42:40;4.23;;;2.37;;
58643;SDS011;44411;49.994;8.660;2023-06-14T12:45:06;5.45;;;2.60;;
58643;SDS011;44411;49.994;8.660;2023-06-14T12:47:31;3.88;;;2.60;;
58643;SDS011;44411;49.994;8.660;2023-06-14T12:49:56;4.00;;;2.30;;
58643;SDS011;44411;49.994;8.660;2023-06-14T12:52:21;4.23;;;2.63;;
58643;SDS011;44411;49.994;8.660;2023-06-14T12:54:47;8.03;;;2.67;;
58643;SDS011;44411;49.994;8.660;2023-06-14T12:57:12;3.80;;;2.40;;
58643;SDS011;44411;49.994;8.660;2023-06-14T12:59:37;3.90;;;2.57;;
58643;SDS011;44411;49.994;8.660;2023-06-14T13:02:15;4.80;;;2.70;;
58643;SDS011;44411;49.994;8.660;2023-06-14T13:04:41;3.28;;;2.22;;
58643;SDS011;44411;49.994;8.660;2023-06-14T13:07:06;5.70;;;2.65;;
58643;SDS011;44411;49.994;8.660;2023-06-14T13:09:32;4.70;;;2.53;;
58643;SDS011;44411;49.994;8.660;2023-06-14T13:11:57;4.70;;;2.65;;
58643;SDS011;44411;49.994;8.660;2023-06-14T13:14:22;3.97;;;2.10;;
58643;SDS011;44411;49.994;8.660;2023-06-14T13:16:47;4.10;;;2.47;;
58643;SDS011;44411;49.994;8.660;2023-06-14T13:19:13;3.87;;;2.27;;
58643;SDS011;44411;49.994;8.660;2023-06-14T13:21:38;4.07;;;2.47;;
58643;SDS011;44411;49.994;8.660;2023-06-14T13:24:03;3.83;;;2.47;;
58643;SDS011;44411;49.994;8.660;2023-06-14T13:26:29;3.50;;;2.40;;
58643;SDS011;44411;49.994;8.660;2023-06-14T13:28:54;4.80;;;2.17;;
58643;SDS011;44411;49.994;8.660;2023-06-14T13:31:19;6.63;;;2.20;;
58643;SDS011;44411;49.994;8.660;2023-06-14T13:33:44;3.23;;;2.40;;
58643;SDS011;44411;49.994;8.660;2023-06-14T13:36:10;3.53;;;2.20;;
58643;SDS011;44411;49.994;8.660;2023-06-14T13:38:35;5.23;;;2.43;;
58643;SDS011;44411;49.994;8.660;2023-06-14T13:41:03;3.17;;;2.10;;
58643;SDS011;44411;49.994;8.660;2023-06-14T13:43:28;3.63;;;2.58;;
58643;SDS011;44411;49.994;8.660;2023-06-14T13:45:53;4.60;;;2.37;;
58643;SDS011;44411;49.994;8.660;2023-06-14T13:48:19;4.90;;;2.90;;
58643;SDS011;44411;49.994;8.660;2023-06-14T13:50:44;3.55;;;2.03;;
58643;SDS011;44411;49.994;8.660;2023-06-14T13:53:10;6.55;;;2.40;;
58643;SDS011;44411;49.994;8.660;2023-06-14T13:55:36;3.87;;;2.17;;
58643;SDS011;44411;49.994;8.660;2023-06-14T13:58:01;4.50;;;2.27;;
58643;SDS011;44411;49.994;8.660;2023-06-14T14:00:26;4.22;;;2.15;;
58643;SDS011;44411;49.994;8.660;2023-06-14T14:02:52;5.20;;;2.37;;
58643;SDS011;44411;49.994;8.660;2023-06-14T14:05:17;3.67;;;2.07;;
58643;SDS011;44411;49.994;8.660;2023-06-14T14:07:42;3.07;;;1.73;;
58643;SDS011;44411;49.994;8.660;2023-06-14T14:10:08;3.45;;;1.83;;
58643;SDS011;44411;49.994;8.660;2023-06-14T14:12:33;3.45;;;1.88;;
58643;SDS011;44411;49.994;8.660;2023-06-14T14:14:58;4.30;;;1.95;;
58643;SDS011;44411;49.994;8.660;2023-06-14T14:17:24;3.83;;;2.20;;
58643;SDS011;44411;49.994;8.660;2023-06-14T14:19:49;3.70;;;1.90;;
58643;SDS011;44411;49.994;8.660;2023-06-14T14:22:14;5.13;;;1.93;;
58643;SDS011;44411;49.994;8.660;2023-06-14T14:24:39;3.47;;;2.07;;
58643;SDS011;44411;49.994;8.660;2023-06-14T14:27:05;3.63;;;1.85;;
58643;SDS011;44411;49.994;8.660;2023-06-14T14:29:31;3.58;;;2.05;;
58643;SDS011;44411;49.994;8.660;2023-06-14T14:31:56;2.67;;;1.80;;
58643;SDS011;44411;49.994;8.660;2023-06-14T14:34:22;3.57;;;1.90;;
58643;SDS011;44411;49.994;8.660;2023-06-14T14:36:47;5.15;;;2.15;;
58643;SDS011;44411;49.994;8.660;2023-06-14T14:39:13;3.60;;;2.17;;
58643;SDS011;44411;49.994;8.660;2023-06-14T14:41:39;3.80;;;1.97;;
58643;SDS011;44411;49.994;8.660;2023-06-14T14:44:05;3.85;;;1.67;;
58643;SDS011;44411;49.994;8.660;2023-06-14T14:46:30;3.38;;;1.92;;
58643;SDS011;44411;49.994;8.660;2023-06-14T14:48:55;3.53;;;1.80;;
58643;SDS011;44411;49.994;8.660;2023-06-14T14:51:20;4.17;;;2.03;;
58643;SDS011;44411;49.994;8.660;2023-06-14T14:53:45;5.10;;;2.20;;
58643;SDS011;44411;49.994;8.660;2023-06-14T14:56:11;6.37;;;1.90;;